sensor_id;sensor_type;location;lat;lon;timestamp;P1;durP1;ratioP1;P2;durP2;ratioP2
54705;SDS011;40603;48.774;8.916;2022-11-20T00:01:13;9.02;;;3.65;;
54705;SDS011;40603;48.774;8.916;2022-11-20T00:03:40;6.20;;;3.35;;
54705;SDS011;40603;48.774;8.916;2022-11-20T00:06:06;5.90;;;3.60;;
54705;SDS011;40603;48.774;8.916;2022-11-20T00:08:34;6.97;;;3.80;;
54705;SDS011;40603;48.774;8.916;2022-11-20T00:11:20;7.63;;;3.78;;
54705;SDS011;40603;48.774;8.916;2022-11-20T00:13:47;6.68;;;3.40;;
54705;SDS011;40603;48.774;8.916;2022-11-20T00:16:14;4.80;;;3.08;;
54705;SDS011;40603;48.774;8.916;2022-11-20T00:18:41;5.15;;;3.22;;
54705;SDS011;40603;48.774;8.916;2022-11-20T00:21:14;9.15;;;3.85;;
54705;SDS011;40603;48.774;8.916;2022-11-20T00:23:41;6.65;;;3.90;;
54705;SDS011;40603;48.774;8.916;2022-11-20T00:26:07;4.80;;;3.53;;
54705;SDS011;40603;48.774;8.916;2022-11-20T00:28:34;9.30;;;3.88;;
54705;SDS011;40603;48.774;8.916;2022-11-20T00:31:03;5.75;;;3.50;;
54705;SDS011;40603;48.774;8.916;2022-11-20T00:33:31;6.72;;;3.33;;
54705;SDS011;40603;48.774;8.916;2022-11-20T00:36:09;5.70;;;3.72;;
54705;SDS011;40603;48.774;8.916;2022-11-20T00:38:36;4.88;;;2.90;;
54705;SDS011;40603;48.774;8.916;2022-11-20T00:41:03;9.63;;;3.10;;
54705;SDS011;40603;48.774;8.916;2022-11-20T00:43:30;5.15;;;2.92;;
54705;SDS011;40603;48.774;8.916;2022-11-20T00:45:56;9.40;;;3.17;;
54705;SDS011;40603;48.774;8.916;2022-11-20T00:48:24;5.85;;;3.20;;
54705;SDS011;40603;48.774;8.916;2022-11-20T00:50:49;6.03;;;2.65;;
54705;SDS011;40603;48.774;8.916;2022-11-20T00:53:15;5.05;;;2.97;;
54705;SDS011;40603;48.774;8.916;2022-11-20T00:55:40;3.88;;;2.72;;
54705;SDS011;40603;48.774;8.916;2022-11-20T00:58:05;5.80;;;3.35;;
54705;SDS011;40603;48.774;8.916;2022-11-20T01:00:31;5.53;;;2.85;;
54705;SDS011;40603;48.774;8.916;2022-11-20T01:02:56;4.57;;;2.63;;
54705;SDS011;40603;48.774;8.916;2022-11-20T01:05:21;3.88;;;2.50;;
54705;SDS011;40603;48.774;8.916;2022-11-20T01:07:47;5.93;;;3.10;;
54705;SDS011;40603;48.774;8.916;2022-11-20T01:10:12;5.85;;;2.97;;
54705;SDS011;40603;48.774;8.916;2022-11-20T01:12:37;4.20;;;2.75;;
54705;SDS011;40603;48.774;8.916;2022-11-20T01:15:03;6.20;;;2.85;;
54705;SDS011;40603;48.774;8.916;2022-11-20T01:17:28;3.13;;;2.67;;
54705;SDS011;40603;48.774;8.916;2022-11-20T01:19:53;2.60;;;2.20;;
54705;SDS011;40603;48.774;8.916;2022-11-20T01:22:19;4.18;;;2.58;;
54705;SDS011;40603;48.774;8.916;2022-11-20T01:24:44;6.07;;;2.38;;
54705;SDS011;40603;48.774;8.916;2022-11-20T01:27:10;4.15;;;2.53;;
54705;SDS011;40603;48.774;8.916;2022-11-20T01:29:35;4.57;;;2.55;;
54705;SDS011;40603;48.774;8.916;2022-11-20T01:32:00;3.22;;;2.30;;
54705;SDS011;40603;48.774;8.916;2022-11-20T01:34:26;5.45;;;2.05;;
54705;SDS011;40603;48.774;8.916;2022-11-20T01:36:51;4.18;;;2.33;;
54705;SDS011;40603;48.774;8.916;2022-11-20T01:39:19;3.00;;;2.00;;
54705;SDS011;40603;48.774;8.916;2022-11-20T01:41:46;2.55;;;1.90;;
54705;SDS011;40603;48.774;8.916;2022-11-20T01:44:45;4.65;;;2.25;;
54705;SDS011;40603;48.774;8.916;2022-11-20T01:47:19;4.07;;;1.73;;
54705;SDS011;40603;48.774;8.916;2022-11-20T01:49:56;4.22;;;2.20;;
54705;SDS011;40603;48.774;8.916;2022-11-20T01:52:24;3.78;;;2.50;;
54705;SDS011;40603;48.774;8.916;2022-11-20T01:55:03;4.50;;;2.05;;
54705;SDS011;40603;48.774;8.916;2022-11-20T01:57:29;7.13;;;1.90;;
54705;SDS011;40603;48.774;8.916;2022-11-20T02:00:00;4.88;;;2.33;;
54705;SDS011;40603;48.774;8.916;2022-11-20T02:02:28;6.80;;;2.20;;
54705;SDS011;40603;48.774;8.916;2022-11-20T02:04:54;4.10;;;2.22;;
54705;SDS011;40603;48.774;8.916;2022-11-20T02:07:22;4.45;;;2.13;;
54705;SDS011;40603;48.774;8.916;2022-11-20T02:09:48;3.00;;;2.22;;
54705;SDS011;40603;48.774;8.916;2022-11-20T02:12:14;5.38;;;2.60;;
54705;SDS011;40603;48.774;8.916;2022-11-20T02:14:59;2.53;;;2.13;;
54705;SDS011;40603;48.774;8.916;2022-11-20T02:17:24;3.80;;;2.72;;
54705;SDS011;40603;48.774;8.916;2022-11-20T02:19:50;4.25;;;2.08;;
54705;SDS011;40603;48.774;8.916;2022-11-20T02:22:20;3.75;;;2.28;;
54705;SDS011;40603;48.774;8.916;2022-11-20T02:24:50;2.70;;;2.05;;
54705;SDS011;40603;48.774;8.916;2022-11-20T02:27:15;3.40;;;2.63;;
54705;SDS011;40603;48.774;8.916;2022-11-20T02:29:42;7.78;;;2.30;;
54705;SDS011;40603;48.774;8.916;2022-11-20T02:32:25;4.13;;;2.37;;
54705;SDS011;40603;48.774;8.916;2022-11-20T02:34:51;3.67;;;2.72;;
54705;SDS011;40603;48.774;8.916;2022-11-20T02:37:17;2.92;;;2.15;;
54705;SDS011;40603;48.774;8.916;2022-11-20T02:39:43;9.43;;;2.35;;
54705;SDS011;40603;48.774;8.916;2022-11-20T02:42:09;5.30;;;2.33;;
54705;SDS011;40603;48.774;8.916;2022-11-20T02:44:35;2.58;;;2.00;;
54705;SDS011;40603;48.774;8.916;2022-11-20T02:47:00;3.05;;;2.22;;
54705;SDS011;40603;48.774;8.916;2022-11-20T02:49:25;2.78;;;2.13;;
54705;SDS011;40603;48.774;8.916;2022-11-20T02:51:51;3.60;;;2.67;;
54705;SDS011;40603;48.774;8.916;2022-11-20T02:54:16;4.93;;;2.35;;
54705;SDS011;40603;48.774;8.916;2022-11-20T02:56:41;5.72;;;2.45;;
54705;SDS011;40603;48.774;8.916;2022-11-20T02:59:07;3.78;;;2.53;;
54705;SDS011;40603;48.774;8.916;2022-11-20T03:01:32;3.22;;;2.60;;
54705;SDS011;40603;48.774;8.916;2022-11-20T03:03:58;4.93;;;2.95;;
54705;SDS011;40603;48.774;8.916;2022-11-20T03:06:23;3.05;;;2.22;;
54705;SDS011;40603;48.774;8.916;2022-11-20T03:08:48;3.80;;;2.50;;
54705;SDS011;40603;48.774;8.916;2022-11-20T03:11:13;3.45;;;2.30;;
54705;SDS011;40603;48.774;8.916;2022-11-20T03:13:39;4.28;;;2.22;;
54705;SDS011;40603;48.774;8.916;2022-11-20T03:16:05;5.93;;;2.40;;
54705;SDS011;40603;48.774;8.916;2022-11-20T03:18:51;3.55;;;2.35;;
54705;SDS011;40603;48.774;8.916;2022-11-20T03:21:17;3.25;;;2.20;;
54705;SDS011;40603;48.774;8.916;2022-11-20T03:23:42;3.88;;;2.30;;
54705;SDS011;40603;48.774;8.916;2022-11-20T03:26:09;7.10;;;2.10;;
54705;SDS011;40603;48.774;8.916;2022-11-20T03:28:37;3.97;;;2.38;;
54705;SDS011;40603;48.774;8.916;2022-11-20T03:31:10;4.53;;;2.40;;
54705;SDS011;40603;48.774;8.916;2022-11-20T03:33:38;4.72;;;2.40;;
54705;SDS011;40603;48.774;8.916;2022-11-20T03:36:04;3.00;;;2.08;;
54705;SDS011;40603;48.774;8.916;2022-11-20T03:38:31;4.95;;;2.40;;
54705;SDS011;40603;48.774;8.916;2022-11-20T03:41:00;3.63;;;2.17;;
54705;SDS011;40603;48.774;8.916;2022-11-20T03:43:26;7.33;;;2.40;;
54705;SDS011;40603;48.774;8.916;2022-11-20T03:45:52;5.15;;;2.58;;
54705;SDS011;40603;48.774;8.916;2022-11-20T03:48:18;3.55;;;2.22;;
54705;SDS011;40603;48.774;8.916;2022-11-20T03:50:43;4.57;;;2.40;;
54705;SDS011;40603;48.774;8.916;2022-11-20T03:53:08;3.03;;;2.53;;
54705;SDS011;40603;48.774;8.916;2022-11-20T03:55:34;2.92;;;2.47;;
54705;SDS011;40603;48.774;8.916;2022-11-20T03:57:59;6.15;;;2.45;;
54705;SDS011;40603;48.774;8.916;2022-11-20T04:00:24;4.35;;;2.70;;
54705;SDS011;40603;48.774;8.916;2022-11-20T04:02:49;2.72;;;2.28;;
54705;SDS011;40603;48.774;8.916;2022-11-20T04:05:15;3.92;;;2.88;;
54705;SDS011;40603;48.774;8.916;2022-11-20T04:07:40;3.45;;;2.58;;
54705;SDS011;40603;48.774;8.916;2022-11-20T04:10:05;5.97;;;2.45;;
54705;SDS011;40603;48.774;8.916;2022-11-20T04:12:32;4.30;;;2.88;;
54705;SDS011;40603;48.774;8.916;2022-11-20T04:14:58;3.30;;;2.63;;
54705;SDS011;40603;48.774;8.916;2022-11-20T04:17:23;5.63;;;2.58;;
54705;SDS011;40603;48.774;8.916;2022-11-20T04:19:48;4.75;;;2.80;;
54705;SDS011;40603;48.774;8.916;2022-11-20T04:22:14;5.15;;;2.63;;
54705;SDS011;40603;48.774;8.916;2022-11-20T04:24:39;4.82;;;2.42;;
54705;SDS011;40603;48.774;8.916;2022-11-20T04:27:04;3.28;;;2.42;;
54705;SDS011;40603;48.774;8.916;2022-11-20T04:29:30;4.47;;;2.67;;
54705;SDS011;40603;48.774;8.916;2022-11-20T04:31:55;3.25;;;2.40;;
54705;SDS011;40603;48.774;8.916;2022-11-20T04:34:20;4.00;;;2.25;;
54705;SDS011;40603;48.774;8.916;2022-11-20T04:36:46;4.90;;;2.60;;
54705;SDS011;40603;48.774;8.916;2022-11-20T04:39:12;4.65;;;2.70;;
54705;SDS011;40603;48.774;8.916;2022-11-20T04:41:39;5.57;;;2.75;;
54705;SDS011;40603;48.774;8.916;2022-11-20T04:44:04;4.88;;;2.72;;
54705;SDS011;40603;48.774;8.916;2022-11-20T04:46:31;2.80;;;2.22;;
54705;SDS011;40603;48.774;8.916;2022-11-20T04:49:00;3.58;;;2.83;;
54705;SDS011;40603;48.774;8.916;2022-11-20T04:51:26;6.32;;;2.88;;
54705;SDS011;40603;48.774;8.916;2022-11-20T04:53:51;7.30;;;3.13;;
54705;SDS011;40603;48.774;8.916;2022-11-20T04:56:17;4.32;;;2.65;;
54705;SDS011;40603;48.774;8.916;2022-11-20T04:58:42;4.57;;;2.40;;
54705;SDS011;40603;48.774;8.916;2022-11-20T05:03:40;2.53;;;2.30;;
54705;SDS011;40603;48.774;8.916;2022-11-20T05:06:06;2.03;;;1.83;;
54705;SDS011;40603;48.774;8.916;2022-11-20T05:08:32;3.20;;;2.17;;
54705;SDS011;40603;48.774;8.916;2022-11-20T05:11:05;3.65;;;2.70;;
54705;SDS011;40603;48.774;8.916;2022-11-20T05:13:31;4.18;;;2.60;;
54705;SDS011;40603;48.774;8.916;2022-11-20T05:16:01;3.55;;;2.63;;
54705;SDS011;40603;48.774;8.916;2022-11-20T05:18:30;7.85;;;2.47;;
54705;SDS011;40603;48.774;8.916;2022-11-20T05:20:56;4.60;;;2.45;;
54705;SDS011;40603;48.774;8.916;2022-11-20T05:23:22;4.97;;;2.58;;
54705;SDS011;40603;48.774;8.916;2022-11-20T05:25:48;5.22;;;2.72;;
54705;SDS011;40603;48.774;8.916;2022-11-20T05:28:17;3.60;;;2.45;;
54705;SDS011;40603;48.774;8.916;2022-11-20T05:30:42;5.03;;;2.20;;
54705;SDS011;40603;48.774;8.916;2022-11-20T05:33:07;3.85;;;2.35;;
54705;SDS011;40603;48.774;8.916;2022-11-20T05:35:33;2.80;;;2.30;;
54705;SDS011;40603;48.774;8.916;2022-11-20T05:37:58;3.10;;;2.13;;
54705;SDS011;40603;48.774;8.916;2022-11-20T05:40:23;4.03;;;2.70;;
54705;SDS011;40603;48.774;8.916;2022-11-20T05:42:48;3.88;;;2.78;;
54705;SDS011;40603;48.774;8.916;2022-11-20T05:45:14;2.20;;;1.85;;
54705;SDS011;40603;48.774;8.916;2022-11-20T05:47:39;4.28;;;2.67;;
54705;SDS011;40603;48.774;8.916;2022-11-20T05:50:04;3.90;;;2.72;;
54705;SDS011;40603;48.774;8.916;2022-11-20T05:52:30;3.40;;;2.25;;
54705;SDS011;40603;48.774;8.916;2022-11-20T05:54:55;4.28;;;2.50;;
54705;SDS011;40603;48.774;8.916;2022-11-20T05:57:21;2.90;;;2.15;;
54705;SDS011;40603;48.774;8.916;2022-11-20T05:59:46;2.85;;;2.20;;
54705;SDS011;40603;48.774;8.916;2022-11-20T06:02:11;2.80;;;2.47;;
54705;SDS011;40603;48.774;8.916;2022-11-20T06:04:37;2.63;;;2.17;;
54705;SDS011;40603;48.774;8.916;2022-11-20T06:07:04;2.05;;;1.85;;
54705;SDS011;40603;48.774;8.916;2022-11-20T06:09:30;3.05;;;1.88;;
54705;SDS011;40603;48.774;8.916;2022-11-20T06:11:55;4.00;;;2.03;;
54705;SDS011;40603;48.774;8.916;2022-11-20T06:14:20;5.45;;;1.90;;
54705;SDS011;40603;48.774;8.916;2022-11-20T06:16:45;3.22;;;1.77;;
54705;SDS011;40603;48.774;8.916;2022-11-20T06:19:11;1.67;;;1.58;;
54705;SDS011;40603;48.774;8.916;2022-11-20T06:21:36;2.97;;;2.03;;
54705;SDS011;40603;48.774;8.916;2022-11-20T06:24:01;4.40;;;2.08;;
54705;SDS011;40603;48.774;8.916;2022-11-20T06:26:27;3.22;;;2.05;;
54705;SDS011;40603;48.774;8.916;2022-11-20T06:28:52;1.70;;;1.60;;
54705;SDS011;40603;48.774;8.916;2022-11-20T06:31:19;2.60;;;1.63;;
54705;SDS011;40603;48.774;8.916;2022-11-20T06:33:46;3.35;;;1.83;;
54705;SDS011;40603;48.774;8.916;2022-11-20T06:36:13;2.97;;;1.98;;
54705;SDS011;40603;48.774;8.916;2022-11-20T06:38:40;4.50;;;1.95;;
54705;SDS011;40603;48.774;8.916;2022-11-20T06:41:06;3.70;;;1.75;;
54705;SDS011;40603;48.774;8.916;2022-11-20T06:43:32;3.63;;;2.03;;
54705;SDS011;40603;48.774;8.916;2022-11-20T06:45:58;2.22;;;1.70;;
54705;SDS011;40603;48.774;8.916;2022-11-20T06:48:24;2.38;;;1.70;;
54705;SDS011;40603;48.774;8.916;2022-11-20T06:50:50;1.65;;;1.40;;
54705;SDS011;40603;48.774;8.916;2022-11-20T06:53:16;2.70;;;1.55;;
54705;SDS011;40603;48.774;8.916;2022-11-20T06:55:42;1.52;;;1.23;;
54705;SDS011;40603;48.774;8.916;2022-11-20T06:58:10;1.60;;;1.50;;
54705;SDS011;40603;48.774;8.916;2022-11-20T07:00:36;2.42;;;1.23;;
54705;SDS011;40603;48.774;8.916;2022-11-20T07:03:05;2.28;;;1.55;;
54705;SDS011;40603;48.774;8.916;2022-11-20T07:05:32;1.90;;;1.40;;
54705;SDS011;40603;48.774;8.916;2022-11-20T07:07:57;2.05;;;1.33;;
54705;SDS011;40603;48.774;8.916;2022-11-20T07:10:23;3.45;;;1.70;;
54705;SDS011;40603;48.774;8.916;2022-11-20T07:12:49;3.97;;;1.73;;
54705;SDS011;40603;48.774;8.916;2022-11-20T07:15:15;3.00;;;1.80;;
54705;SDS011;40603;48.774;8.916;2022-11-20T07:17:40;4.30;;;2.10;;
54705;SDS011;40603;48.774;8.916;2022-11-20T07:20:06;1.88;;;1.67;;
54705;SDS011;40603;48.774;8.916;2022-11-20T07:22:31;3.97;;;1.90;;
54705;SDS011;40603;48.774;8.916;2022-11-20T07:24:57;3.08;;;1.63;;
54705;SDS011;40603;48.774;8.916;2022-11-20T07:27:22;2.75;;;1.67;;
54705;SDS011;40603;48.774;8.916;2022-11-20T07:29:47;3.50;;;1.75;;
54705;SDS011;40603;48.774;8.916;2022-11-20T07:32:13;2.33;;;1.88;;
54705;SDS011;40603;48.774;8.916;2022-11-20T07:34:38;4.32;;;1.83;;
54705;SDS011;40603;48.774;8.916;2022-11-20T07:37:03;3.80;;;1.88;;
54705;SDS011;40603;48.774;8.916;2022-11-20T07:39:29;3.20;;;1.55;;
54705;SDS011;40603;48.774;8.916;2022-11-20T07:41:54;5.88;;;1.80;;
54705;SDS011;40603;48.774;8.916;2022-11-20T07:44:19;1.65;;;1.45;;
54705;SDS011;40603;48.774;8.916;2022-11-20T07:46:44;2.45;;;1.58;;
54705;SDS011;40603;48.774;8.916;2022-11-20T07:49:10;2.60;;;1.60;;
54705;SDS011;40603;48.774;8.916;2022-11-20T07:51:35;1.70;;;1.42;;
54705;SDS011;40603;48.774;8.916;2022-11-20T07:54:00;2.47;;;1.60;;
54705;SDS011;40603;48.774;8.916;2022-11-20T07:56:26;7.25;;;1.85;;
54705;SDS011;40603;48.774;8.916;2022-11-20T07:58:51;3.95;;;1.63;;
54705;SDS011;40603;48.774;8.916;2022-11-20T08:01:16;1.15;;;0.90;;
54705;SDS011;40603;48.774;8.916;2022-11-20T08:03:41;4.05;;;1.38;;
54705;SDS011;40603;48.774;8.916;2022-11-20T08:06:07;1.05;;;0.90;;
54705;SDS011;40603;48.774;8.916;2022-11-20T08:08:32;0.82;;;0.80;;
54705;SDS011;40603;48.774;8.916;2022-11-20T08:10:57;2.53;;;1.15;;
54705;SDS011;40603;48.774;8.916;2022-11-20T08:13:43;0.85;;;0.70;;
54705;SDS011;40603;48.774;8.916;2022-11-20T08:16:27;0.60;;;0.60;;
54705;SDS011;40603;48.774;8.916;2022-11-20T08:18:53;0.88;;;0.70;;
54705;SDS011;40603;48.774;8.916;2022-11-20T08:21:18;0.77;;;0.65;;
54705;SDS011;40603;48.774;8.916;2022-11-20T08:23:43;0.77;;;0.60;;
54705;SDS011;40603;48.774;8.916;2022-11-20T08:26:08;0.90;;;0.82;;
54705;SDS011;40603;48.774;8.916;2022-11-20T08:28:34;0.47;;;0.47;;
54705;SDS011;40603;48.774;8.916;2022-11-20T08:30:59;0.93;;;0.50;;
54705;SDS011;40603;48.774;8.916;2022-11-20T08:33:27;2.85;;;0.70;;
54705;SDS011;40603;48.774;8.916;2022-11-20T08:35:52;1.08;;;0.68;;
54705;SDS011;40603;48.774;8.916;2022-11-20T08:38:18;1.00;;;0.80;;
54705;SDS011;40603;48.774;8.916;2022-11-20T08:40:43;0.82;;;0.80;;
54705;SDS011;40603;48.774;8.916;2022-11-20T08:43:31;1.00;;;0.80;;
54705;SDS011;40603;48.774;8.916;2022-11-20T08:45:57;4.10;;;0.90;;
54705;SDS011;40603;48.774;8.916;2022-11-20T08:48:22;1.33;;;0.98;;
54705;SDS011;40603;48.774;8.916;2022-11-20T08:50:47;1.08;;;0.73;;
54705;SDS011;40603;48.774;8.916;2022-11-20T08:53:13;2.65;;;0.90;;
54705;SDS011;40603;48.774;8.916;2022-11-20T08:55:38;0.60;;;0.60;;
54705;SDS011;40603;48.774;8.916;2022-11-20T08:58:04;0.82;;;0.73;;
54705;SDS011;40603;48.774;8.916;2022-11-20T09:00:30;1.65;;;1.10;;
54705;SDS011;40603;48.774;8.916;2022-11-20T09:02:57;1.20;;;0.80;;
54705;SDS011;40603;48.774;8.916;2022-11-20T09:05:23;1.67;;;1.10;;
54705;SDS011;40603;48.774;8.916;2022-11-20T09:07:48;0.65;;;0.65;;
54705;SDS011;40603;48.774;8.916;2022-11-20T09:10:14;0.93;;;0.65;;
54705;SDS011;40603;48.774;8.916;2022-11-20T09:12:39;1.38;;;0.50;;
54705;SDS011;40603;48.774;8.916;2022-11-20T09:15:05;0.80;;;0.60;;
54705;SDS011;40603;48.774;8.916;2022-11-20T09:17:30;1.08;;;0.70;;
54705;SDS011;40603;48.774;8.916;2022-11-20T09:19:55;2.38;;;0.73;;
54705;SDS011;40603;48.774;8.916;2022-11-20T09:22:21;0.65;;;0.60;;
54705;SDS011;40603;48.774;8.916;2022-11-20T09:24:46;0.60;;;0.57;;
54705;SDS011;40603;48.774;8.916;2022-11-20T09:27:11;1.13;;;0.70;;
54705;SDS011;40603;48.774;8.916;2022-11-20T09:29:37;1.27;;;0.52;;
54705;SDS011;40603;48.774;8.916;2022-11-20T09:32:02;0.60;;;0.60;;
54705;SDS011;40603;48.774;8.916;2022-11-20T09:34:27;0.50;;;0.50;;
54705;SDS011;40603;48.774;8.916;2022-11-20T09:36:53;1.17;;;0.45;;
54705;SDS011;40603;48.774;8.916;2022-11-20T09:39:18;1.08;;;0.63;;
54705;SDS011;40603;48.774;8.916;2022-11-20T09:41:53;0.70;;;0.40;;
54705;SDS011;40603;48.774;8.916;2022-11-20T09:47:13;2.05;;;0.50;;
54705;SDS011;40603;48.774;8.916;2022-11-20T09:55:13;0.95;;;0.73;;
54705;SDS011;40603;48.774;8.916;2022-11-20T09:57:40;0.55;;;0.55;;
54705;SDS011;40603;48.774;8.916;2022-11-20T10:00:12;1.02;;;0.90;;
54705;SDS011;40603;48.774;8.916;2022-11-20T10:02:47;1.48;;;1.17;;
54705;SDS011;40603;48.774;8.916;2022-11-20T10:10:40;1.20;;;0.93;;
54705;SDS011;40603;48.774;8.916;2022-11-20T10:13:14;1.00;;;0.90;;
54705;SDS011;40603;48.774;8.916;2022-11-20T10:15:49;1.10;;;1.00;;
54705;SDS011;40603;48.774;8.916;2022-11-20T10:21:44;1.27;;;1.02;;
54705;SDS011;40603;48.774;8.916;2022-11-20T10:29:52;2.83;;;0.80;;
54705;SDS011;40603;48.774;8.916;2022-11-20T10:32:48;1.25;;;0.80;;
54705;SDS011;40603;48.774;8.916;2022-11-20T10:35:37;0.82;;;0.80;;
54705;SDS011;40603;48.774;8.916;2022-11-20T10:38:09;1.92;;;1.08;;
54705;SDS011;40603;48.774;8.916;2022-11-20T10:40:44;2.00;;;0.95;;
54705;SDS011;40603;48.774;8.916;2022-11-20T10:46:10;2.25;;;0.90;;
54705;SDS011;40603;48.774;8.916;2022-11-20T10:48:39;1.13;;;1.00;;
54705;SDS011;40603;48.774;8.916;2022-11-20T10:56:52;2.15;;;1.10;;
54705;SDS011;40603;48.774;8.916;2022-11-20T10:59:32;3.13;;;1.23;;
54705;SDS011;40603;48.774;8.916;2022-11-20T11:02:20;1.30;;;0.95;;
54705;SDS011;40603;48.774;8.916;2022-11-20T11:04:47;2.03;;;1.10;;
54705;SDS011;40603;48.774;8.916;2022-11-20T11:07:24;1.40;;;1.23;;
54705;SDS011;40603;48.774;8.916;2022-11-20T11:09:54;2.75;;;1.20;;
54705;SDS011;40603;48.774;8.916;2022-11-20T11:12:21;2.03;;;1.40;;
54705;SDS011;40603;48.774;8.916;2022-11-20T11:14:51;2.95;;;1.40;;
54705;SDS011;40603;48.774;8.916;2022-11-20T11:17:22;4.68;;;1.75;;
54705;SDS011;40603;48.774;8.916;2022-11-20T11:22:26;4.18;;;1.50;;
54705;SDS011;40603;48.774;8.916;2022-11-20T11:24:53;4.68;;;1.20;;
54705;SDS011;40603;48.774;8.916;2022-11-20T11:27:19;4.78;;;1.20;;
54705;SDS011;40603;48.774;8.916;2022-11-20T11:29:45;4.32;;;1.48;;
54705;SDS011;40603;48.774;8.916;2022-11-20T11:32:14;2.47;;;1.20;;
54705;SDS011;40603;48.774;8.916;2022-11-20T11:34:42;3.75;;;1.20;;
54705;SDS011;40603;48.774;8.916;2022-11-20T11:37:18;5.35;;;1.38;;
54705;SDS011;40603;48.774;8.916;2022-11-20T11:39:46;4.47;;;1.42;;
54705;SDS011;40603;48.774;8.916;2022-11-20T11:42:13;4.97;;;1.20;;
54705;SDS011;40603;48.774;8.916;2022-11-20T11:44:45;4.53;;;1.40;;
54705;SDS011;40603;48.774;8.916;2022-11-20T11:47:36;2.15;;;1.20;;
54705;SDS011;40603;48.774;8.916;2022-11-20T11:52:45;2.58;;;1.17;;
54705;SDS011;40603;48.774;8.916;2022-11-20T11:55:23;2.10;;;0.88;;
54705;SDS011;40603;48.774;8.916;2022-11-20T12:00:22;2.10;;;1.00;;
54705;SDS011;40603;48.774;8.916;2022-11-20T12:05:17;2.35;;;1.20;;
54705;SDS011;40603;48.774;8.916;2022-11-20T12:07:50;4.93;;;1.00;;
54705;SDS011;40603;48.774;8.916;2022-11-20T12:12:48;6.70;;;0.80;;
54705;SDS011;40603;48.774;8.916;2022-11-20T12:15:22;2.83;;;0.82;;
54705;SDS011;40603;48.774;8.916;2022-11-20T12:17:50;1.85;;;1.52;;
54705;SDS011;40603;48.774;8.916;2022-11-20T12:20:15;1.13;;;0.77;;
54705;SDS011;40603;48.774;8.916;2022-11-20T12:22:53;3.25;;;1.40;;
54705;SDS011;40603;48.774;8.916;2022-11-20T12:25:28;2.65;;;1.00;;
54705;SDS011;40603;48.774;8.916;2022-11-20T12:27:59;1.65;;;0.90;;
54705;SDS011;40603;48.774;8.916;2022-11-20T12:30:28;2.70;;;0.68;;
54705;SDS011;40603;48.774;8.916;2022-11-20T12:33:17;1.38;;;0.77;;
54705;SDS011;40603;48.774;8.916;2022-11-20T13:01:44;2.72;;;0.90;;
54705;SDS011;40603;48.774;8.916;2022-11-20T13:07:02;1.30;;;0.80;;
54705;SDS011;40603;48.774;8.916;2022-11-20T13:09:29;2.63;;;1.00;;
54705;SDS011;40603;48.774;8.916;2022-11-20T13:14:42;7.18;;;0.95;;
54705;SDS011;40603;48.774;8.916;2022-11-20T13:17:33;4.28;;;0.70;;
54705;SDS011;40603;48.774;8.916;2022-11-20T13:20:01;1.50;;;0.73;;
54705;SDS011;40603;48.774;8.916;2022-11-20T13:22:28;3.15;;;0.95;;
54705;SDS011;40603;48.774;8.916;2022-11-20T13:24:56;1.45;;;0.93;;
54705;SDS011;40603;48.774;8.916;2022-11-20T13:27:22;2.70;;;0.80;;
54705;SDS011;40603;48.774;8.916;2022-11-20T13:32:47;1.67;;;0.70;;
54705;SDS011;40603;48.774;8.916;2022-11-20T13:35:13;1.67;;;0.60;;
54705;SDS011;40603;48.774;8.916;2022-11-20T13:40:50;2.13;;;0.98;;
54705;SDS011;40603;48.774;8.916;2022-11-20T13:46:02;3.75;;;0.90;;
54705;SDS011;40603;48.774;8.916;2022-11-20T13:48:30;1.73;;;0.80;;
54705;SDS011;40603;48.774;8.916;2022-11-20T14:01:52;3.03;;;1.00;;
54705;SDS011;40603;48.774;8.916;2022-11-20T14:04:19;1.73;;;0.93;;
54705;SDS011;40603;48.774;8.916;2022-11-20T14:06:55;2.05;;;0.70;;
54705;SDS011;40603;48.774;8.916;2022-11-20T14:09:31;4.20;;;1.05;;
54705;SDS011;40603;48.774;8.916;2022-11-20T14:11:57;2.42;;;1.10;;
54705;SDS011;40603;48.774;8.916;2022-11-20T14:14:26;1.48;;;0.98;;
54705;SDS011;40603;48.774;8.916;2022-11-20T14:17:04;1.60;;;1.00;;
54705;SDS011;40603;48.774;8.916;2022-11-20T14:19:33;2.47;;;1.15;;
54705;SDS011;40603;48.774;8.916;2022-11-20T14:24:47;4.55;;;1.67;;
54705;SDS011;40603;48.774;8.916;2022-11-20T14:27:17;2.67;;;1.20;;
54705;SDS011;40603;48.774;8.916;2022-11-20T14:29:44;3.15;;;1.00;;
54705;SDS011;40603;48.774;8.916;2022-11-20T14:32:11;2.50;;;1.20;;
54705;SDS011;40603;48.774;8.916;2022-11-20T14:34:40;3.85;;;1.13;;
54705;SDS011;40603;48.774;8.916;2022-11-20T14:37:10;4.32;;;0.80;;
54705;SDS011;40603;48.774;8.916;2022-11-20T14:39:48;1.77;;;0.90;;
54705;SDS011;40603;48.774;8.916;2022-11-20T14:42:24;2.65;;;1.20;;
54705;SDS011;40603;48.774;8.916;2022-11-20T14:44:51;4.38;;;1.08;;
54705;SDS011;40603;48.774;8.916;2022-11-20T14:47:21;2.97;;;1.30;;
54705;SDS011;40603;48.774;8.916;2022-11-20T14:49:49;3.00;;;1.00;;
54705;SDS011;40603;48.774;8.916;2022-11-20T14:52:16;2.30;;;1.10;;
54705;SDS011;40603;48.774;8.916;2022-11-20T14:54:47;4.57;;;0.70;;
54705;SDS011;40603;48.774;8.916;2022-11-20T15:02:41;3.05;;;0.98;;
54705;SDS011;40603;48.774;8.916;2022-11-20T15:05:07;3.40;;;1.05;;
54705;SDS011;40603;48.774;8.916;2022-11-20T15:07:33;3.95;;;1.08;;
54705;SDS011;40603;48.774;8.916;2022-11-20T15:10:05;2.53;;;1.10;;
54705;SDS011;40603;48.774;8.916;2022-11-20T15:12:32;1.67;;;0.82;;
54705;SDS011;40603;48.774;8.916;2022-11-20T15:15:01;2.15;;;0.80;;
54705;SDS011;40603;48.774;8.916;2022-11-20T15:17:28;1.92;;;0.80;;
54705;SDS011;40603;48.774;8.916;2022-11-20T15:19:54;1.58;;;0.70;;
54705;SDS011;40603;48.774;8.916;2022-11-20T15:22:20;1.52;;;1.08;;
54705;SDS011;40603;48.774;8.916;2022-11-20T15:24:45;1.55;;;1.00;;
54705;SDS011;40603;48.774;8.916;2022-11-20T15:27:10;2.40;;;1.00;;
54705;SDS011;40603;48.774;8.916;2022-11-20T15:29:36;2.13;;;1.10;;
54705;SDS011;40603;48.774;8.916;2022-11-20T15:32:01;3.65;;;0.88;;
54705;SDS011;40603;48.774;8.916;2022-11-20T15:34:27;2.75;;;1.00;;
54705;SDS011;40603;48.774;8.916;2022-11-20T15:36:52;3.22;;;1.00;;
54705;SDS011;40603;48.774;8.916;2022-11-20T15:39:18;1.23;;;0.90;;
54705;SDS011;40603;48.774;8.916;2022-11-20T15:41:43;3.88;;;1.20;;
54705;SDS011;40603;48.774;8.916;2022-11-20T15:44:08;2.72;;;1.00;;
54705;SDS011;40603;48.774;8.916;2022-11-20T15:46:36;1.88;;;0.95;;
54705;SDS011;40603;48.774;8.916;2022-11-20T15:49:03;7.53;;;1.13;;
54705;SDS011;40603;48.774;8.916;2022-11-20T15:51:30;2.25;;;1.17;;
54705;SDS011;40603;48.774;8.916;2022-11-20T15:53:57;4.68;;;1.42;;
54705;SDS011;40603;48.774;8.916;2022-11-20T15:56:22;3.00;;;1.50;;
54705;SDS011;40603;48.774;8.916;2022-11-20T15:58:48;3.58;;;1.42;;
54705;SDS011;40603;48.774;8.916;2022-11-20T16:01:15;2.97;;;1.10;;
54705;SDS011;40603;48.774;8.916;2022-11-20T16:03:42;9.38;;;1.42;;
54705;SDS011;40603;48.774;8.916;2022-11-20T16:06:07;1.40;;;1.02;;
54705;SDS011;40603;48.774;8.916;2022-11-20T16:08:33;2.75;;;1.20;;
54705;SDS011;40603;48.774;8.916;2022-11-20T16:10:58;6.18;;;2.92;;
54705;SDS011;40603;48.774;8.916;2022-11-20T16:13:24;4.80;;;2.35;;
54705;SDS011;40603;48.774;8.916;2022-11-20T16:16:17;3.60;;;2.63;;
54705;SDS011;40603;48.774;8.916;2022-11-20T16:18:43;6.93;;;2.85;;
54705;SDS011;40603;48.774;8.916;2022-11-20T16:21:10;5.50;;;3.42;;
54705;SDS011;40603;48.774;8.916;2022-11-20T16:23:37;5.15;;;2.83;;
54705;SDS011;40603;48.774;8.916;2022-11-20T16:26:08;2.72;;;1.90;;
54705;SDS011;40603;48.774;8.916;2022-11-20T16:28:36;2.10;;;1.60;;
54705;SDS011;40603;48.774;8.916;2022-11-20T16:31:08;2.10;;;1.30;;
54705;SDS011;40603;48.774;8.916;2022-11-20T16:33:37;2.22;;;1.80;;
54705;SDS011;40603;48.774;8.916;2022-11-20T16:36:07;4.30;;;2.20;;
54705;SDS011;40603;48.774;8.916;2022-11-20T16:38:35;3.28;;;1.75;;